BAW305 LFPG-EGPH
Flight info
| Callsign | BAW305 |
|---|---|
| Flight time | 1h 19m |
| Altitude | 38000 |
| Route | ATREX DCT VESAN DCT RATUK DCT SOVAT L613 HALIF UN590 ABEVI UN601 INPIP |
| Aircraft | A20N/M-SDE2E3FGHIRWXY/LB1 |
Departure
| Time | 2026-04-21 12:10 |
|---|---|
| Airport | Charles de Gaulle International Airport (LFPG) |
Arrival
| Time | 2026-04-21 13:29 |
|---|---|
| Airport | Edinburgh Airport (EGPH) |
| Time | Latitude | Longitude | Altitude | Speed | Heading |
|---|---|---|---|---|---|
| 2026-04-21 11:15 | 49.01677 | 2.54049 | 360 ft | 0 kts | 147° |
| 2026-04-21 11:55 | 49.01689 | 2.54037 | 361 ft | 2 kts | 148° |
| 2026-04-21 11:56 | 49.01703 | 2.54024 | 363 ft | 2 kts | 148° |
| 2026-04-21 11:56 | 49.01717 | 2.54011 | 356 ft | 2 kts | 149° |
| 2026-04-21 11:56 | 49.01731 | 2.53999 | 359 ft | 2 kts | 154° |
| 2026-04-21 11:56 | 49.01746 | 2.53991 | 363 ft | 2 kts | 210° |
| 2026-04-21 11:57 | 49.01759 | 2.54007 | 361 ft | 2 kts | 225° |
| 2026-04-21 11:57 | 49.01771 | 2.54025 | 361 ft | 2 kts | 228° |
| 2026-04-21 11:57 | 49.01781 | 2.54043 | 361 ft | 2 kts | 230° |
| 2026-04-21 11:57 | 49.01792 | 2.54063 | 358 ft | 2 kts | 232° |
| 2026-04-21 11:58 | 49.01801 | 2.54083 | 358 ft | 2 kts | 237° |
| 2026-04-21 11:58 | 49.01806 | 2.54095 | 361 ft | 1 kts | 245° |
| 2026-04-21 11:58 | 49.01807 | 2.54097 | 361 ft | 2 kts | 253° |
| 2026-04-21 11:58 | 49.01805 | 2.54085 | 362 ft | 0 kts | 253° |
| 2026-04-21 12:00 | 49.01805 | 2.54087 | 362 ft | 2 kts | 253° |
| 2026-04-21 12:00 | 49.01808 | 2.54111 | 360 ft | 2 kts | 264° |
| 2026-04-21 12:00 | 49.01809 | 2.54119 | 358 ft | 0 kts | 264° |
| 2026-04-21 12:02 | 49.01808 | 2.54102 | 360 ft | 3 kts | 264° |
| 2026-04-21 12:03 | 49.01804 | 2.54049 | 362 ft | 7 kts | 264° |
| 2026-04-21 12:03 | 49.01799 | 2.53963 | 354 ft | 10 kts | 265° |
| 2026-04-21 12:03 | 49.01795 | 2.53848 | 357 ft | 12 kts | 268° |
| 2026-04-21 12:03 | 49.01789 | 2.53714 | 361 ft | 14 kts | 264° |
| 2026-04-21 12:04 | 49.01781 | 2.53571 | 354 ft | 12 kts | 265° |
| 2026-04-21 12:04 | 49.01774 | 2.53452 | 362 ft | 11 kts | 265° |
| 2026-04-21 12:04 | 49.01767 | 2.53320 | 355 ft | 14 kts | 266° |
| 2026-04-21 12:04 | 49.01758 | 2.53166 | 363 ft | 11 kts | 263° |
| 2026-04-21 12:05 | 49.01762 | 2.53046 | 359 ft | 13 kts | 294° |
| 2026-04-21 12:05 | 49.01811 | 2.52920 | 360 ft | 16 kts | 301° |
| 2026-04-21 12:05 | 49.01828 | 2.52756 | 358 ft | 17 kts | 263° |
| 2026-04-21 12:05 | 49.01816 | 2.52595 | 362 ft | 16 kts | 266° |
| 2026-04-21 12:06 | 49.01808 | 2.52426 | 354 ft | 15 kts | 268° |
| 2026-04-21 12:06 | 49.01876 | 2.52343 | 356 ft | 13 kts | 329° |
| 2026-04-21 12:06 | 49.01883 | 2.52231 | 356 ft | 12 kts | 264° |
| 2026-04-21 12:06 | 49.01906 | 2.52117 | 358 ft | 11 kts | 336° |
| 2026-04-21 12:07 | 49.01985 | 2.52114 | 356 ft | 13 kts | 358° |
| 2026-04-21 12:07 | 49.02081 | 2.52110 | 353 ft | 15 kts | 9° |
| 2026-04-21 12:07 | 49.02114 | 2.52236 | 354 ft | 15 kts | 86° |
| 2026-04-21 12:07 | 49.02116 | 2.52272 | 353 ft | 0 kts | 85° |
| 2026-04-21 12:09 | 49.02118 | 2.52319 | 358 ft | 18 kts | 85° |
| 2026-04-21 12:09 | 49.02148 | 2.52830 | 362 ft | 81 kts | 86° |
| 2026-04-21 12:09 | 49.02206 | 2.53984 | 361 ft | 135 kts | 85° |
| 2026-04-21 12:09 | 49.02299 | 2.55621 | 361 ft | 173 kts | 85° |
| 2026-04-21 12:10 | 49.02391 | 2.57408 | 952 ft | 168 kts | 86° |
| 2026-04-21 12:10 | 49.02481 | 2.59271 | 1355 ft | 182 kts | 85° |
| 2026-04-21 12:10 | 49.02585 | 2.61223 | 1913 ft | 188 kts | 85° |
| 2026-04-21 12:10 | 49.02699 | 2.63304 | 2250 ft | 206 kts | 85° |
| 2026-04-21 12:11 | 49.02825 | 2.65615 | 2494 ft | 230 kts | 85° |
| 2026-04-21 12:11 | 49.02960 | 2.68149 | 2815 ft | 250 kts | 85° |
| 2026-04-21 12:11 | 49.03100 | 2.70846 | 3134 ft | 251 kts | 85° |
| 2026-04-21 12:11 | 49.03349 | 2.73562 | 3253 ft | 270 kts | 71° |
| 2026-04-21 12:12 | 49.04383 | 2.75959 | 4138 ft | 270 kts | 40° |
| 2026-04-21 12:12 | 49.06005 | 2.77295 | 5295 ft | 267 kts | 13° |
| 2026-04-21 12:12 | 49.07861 | 2.77378 | 6234 ft | 271 kts | 347° |
| 2026-04-21 12:12 | 49.09651 | 2.76450 | 7145 ft | 274 kts | 336° |
| 2026-04-21 12:13 | 49.11397 | 2.75220 | 8080 ft | 278 kts | 334° |
| 2026-04-21 12:13 | 49.13172 | 2.73987 | 8983 ft | 282 kts | 336° |
| 2026-04-21 12:13 | 49.14993 | 2.72824 | 9869 ft | 286 kts | 338° |
| 2026-04-21 12:13 | 49.16894 | 2.71694 | 10454 ft | 304 kts | 339° |
| 2026-04-21 12:14 | 49.18952 | 2.70525 | 10775 ft | 327 kts | 339° |
| 2026-04-21 12:14 | 49.21141 | 2.69304 | 11317 ft | 339 kts | 339° |
| 2026-04-21 12:14 | 49.23372 | 2.68064 | 12147 ft | 343 kts | 339° |
| 2026-04-21 12:14 | 49.25627 | 2.66809 | 12950 ft | 347 kts | 339° |
| 2026-04-21 12:15 | 49.27911 | 2.65534 | 13704 ft | 351 kts | 339° |
| 2026-04-21 12:15 | 49.30220 | 2.64242 | 14463 ft | 355 kts | 339° |
| 2026-04-21 12:15 | 49.32552 | 2.62935 | 15209 ft | 359 kts | 339° |
| 2026-04-21 12:15 | 49.34909 | 2.61612 | 15902 ft | 363 kts | 339° |
| 2026-04-21 12:16 | 49.37295 | 2.60270 | 16596 ft | 367 kts | 344° |
| 2026-04-21 12:16 | 49.39710 | 2.58919 | 17198 ft | 372 kts | 339° |
| 2026-04-21 12:16 | 49.42147 | 2.57542 | 17903 ft | 374 kts | 339° |
| 2026-04-21 12:16 | 49.44602 | 2.56155 | 18538 ft | 378 kts | 339° |
| 2026-04-21 12:17 | 49.47051 | 2.54771 | 19157 ft | 382 kts | 339° |
| 2026-04-21 12:17 | 49.49555 | 2.53355 | 19766 ft | 385 kts | 339° |
| 2026-04-21 12:17 | 49.52082 | 2.51925 | 20352 ft | 389 kts | 339° |
| 2026-04-21 12:17 | 49.54632 | 2.50481 | 20943 ft | 392 kts | 339° |
| 2026-04-21 12:18 | 49.57202 | 2.49024 | 21503 ft | 396 kts | 339° |
| 2026-04-21 12:18 | 49.59798 | 2.47549 | 22054 ft | 399 kts | 339° |
| 2026-04-21 12:18 | 49.62416 | 2.46061 | 22595 ft | 402 kts | 339° |
| 2026-04-21 12:18 | 49.65055 | 2.44559 | 23119 ft | 406 kts | 339° |
| 2026-04-21 12:19 | 49.67713 | 2.43045 | 23635 ft | 409 kts | 339° |
| 2026-04-21 12:19 | 49.70394 | 2.41518 | 24138 ft | 412 kts | 339° |
| 2026-04-21 12:19 | 49.73095 | 2.39976 | 24623 ft | 415 kts | 339° |
| 2026-04-21 12:19 | 49.75813 | 2.38423 | 25098 ft | 418 kts | 339° |
| 2026-04-21 12:20 | 49.78554 | 2.36854 | 25567 ft | 421 kts | 339° |
| 2026-04-21 12:20 | 49.81311 | 2.35270 | 26001 ft | 424 kts | 339° |
| 2026-04-21 12:20 | 49.84087 | 2.33668 | 26425 ft | 427 kts | 339° |
| 2026-04-21 12:20 | 49.86876 | 2.32055 | 26866 ft | 430 kts | 339° |
| 2026-04-21 12:21 | 49.89688 | 2.30428 | 27255 ft | 432 kts | 339° |
| 2026-04-21 12:21 | 49.92513 | 2.28793 | 27648 ft | 435 kts | 339° |
| 2026-04-21 12:21 | 49.95357 | 2.27144 | 28013 ft | 438 kts | 339° |
| 2026-04-21 12:21 | 49.98217 | 2.25484 | 28364 ft | 440 kts | 339° |
| 2026-04-21 12:22 | 50.01092 | 2.23813 | 28708 ft | 443 kts | 339° |
| 2026-04-21 12:22 | 50.03986 | 2.22128 | 29033 ft | 445 kts | 339° |
| 2026-04-21 12:22 | 50.06891 | 2.20436 | 29368 ft | 447 kts | 339° |
| 2026-04-21 12:22 | 50.09813 | 2.18731 | 29657 ft | 450 kts | 339° |
| 2026-04-21 12:23 | 50.12748 | 2.17017 | 29971 ft | 452 kts | 339° |
| 2026-04-21 12:23 | 50.15050 | 2.15661 | 30165 ft | 455 kts | 339° |
| 2026-04-21 12:23 | 50.18013 | 2.13923 | 30512 ft | 456 kts | 339° |
| 2026-04-21 12:23 | 50.20988 | 2.12183 | 30841 ft | 457 kts | 339° |
| 2026-04-21 12:24 | 50.23974 | 2.10434 | 31163 ft | 459 kts | 339° |
| 2026-04-21 12:24 | 50.26963 | 2.08679 | 31535 ft | 459 kts | 339° |
| 2026-04-21 12:24 | 50.29948 | 2.06923 | 31907 ft | 458 kts | 339° |
| 2026-04-21 12:24 | 50.32928 | 2.05157 | 32295 ft | 458 kts | 338° |
| 2026-04-21 12:25 | 50.35807 | 2.03044 | 32652 ft | 457 kts | 331° |
| 2026-04-21 12:25 | 50.38509 | 2.00447 | 33024 ft | 455 kts | 324° |
| 2026-04-21 12:25 | 50.41009 | 1.97425 | 33364 ft | 454 kts | 319° |
| 2026-04-21 12:25 | 50.43387 | 1.94164 | 33686 ft | 454 kts | 319° |
| 2026-04-21 12:26 | 50.45774 | 1.90927 | 34004 ft | 453 kts | 319° |
| 2026-04-21 12:26 | 50.48161 | 1.87692 | 34319 ft | 453 kts | 319° |
| 2026-04-21 12:26 | 50.50538 | 1.84460 | 34617 ft | 452 kts | 319° |
| 2026-04-21 12:26 | 50.52913 | 1.81218 | 34910 ft | 451 kts | 319° |
| 2026-04-21 12:27 | 50.55277 | 1.77981 | 35196 ft | 451 kts | 319° |
| 2026-04-21 12:27 | 50.57636 | 1.74745 | 35463 ft | 450 kts | 319° |
| 2026-04-21 12:27 | 50.59993 | 1.71505 | 35712 ft | 450 kts | 319° |
| 2026-04-21 12:27 | 50.62349 | 1.68263 | 35953 ft | 449 kts | 319° |
| 2026-04-21 12:28 | 50.64699 | 1.65023 | 36216 ft | 448 kts | 319° |
| 2026-04-21 12:28 | 50.67044 | 1.61788 | 36430 ft | 448 kts | 319° |
| 2026-04-21 12:28 | 50.69391 | 1.58542 | 36625 ft | 449 kts | 318° |
| 2026-04-21 12:28 | 50.71732 | 1.55298 | 36836 ft | 448 kts | 318° |
| 2026-04-21 12:29 | 50.74074 | 1.52049 | 37043 ft | 448 kts | 318° |
| 2026-04-21 12:29 | 50.76412 | 1.48801 | 37216 ft | 448 kts | 318° |
| 2026-04-21 12:29 | 50.78752 | 1.45546 | 37392 ft | 448 kts | 318° |
| 2026-04-21 12:29 | 50.81091 | 1.42291 | 37563 ft | 448 kts | 318° |
| 2026-04-21 12:30 | 50.83430 | 1.39033 | 37728 ft | 448 kts | 318° |
| 2026-04-21 12:30 | 50.85764 | 1.35777 | 37887 ft | 448 kts | 318° |
| 2026-04-21 12:30 | 50.88102 | 1.32512 | 38003 ft | 448 kts | 318° |
| 2026-04-21 12:31 | 50.92768 | 1.25979 | 38000 ft | 447 kts | 318° |
| 2026-04-21 12:31 | 50.97421 | 1.19446 | 38000 ft | 447 kts | 318° |
| 2026-04-21 12:32 | 51.02076 | 1.12893 | 38000 ft | 447 kts | 318° |
| 2026-04-21 12:32 | 51.06745 | 1.06475 | 38001 ft | 447 kts | 322° |
| 2026-04-21 12:33 | 51.11851 | 1.00793 | 37998 ft | 447 kts | 325° |
| 2026-04-21 12:33 | 51.16969 | 0.95108 | 38000 ft | 448 kts | 325° |
| 2026-04-21 12:34 | 51.22054 | 0.89453 | 38000 ft | 448 kts | 325° |
| 2026-04-21 12:34 | 51.27172 | 0.83754 | 38003 ft | 448 kts | 324° |
| 2026-04-21 12:35 | 51.32285 | 0.78047 | 38007 ft | 448 kts | 324° |
| 2026-04-21 12:35 | 51.37398 | 0.72324 | 38010 ft | 449 kts | 324° |
| 2026-04-21 12:36 | 51.42510 | 0.66585 | 38011 ft | 449 kts | 324° |
| 2026-04-21 12:36 | 51.47622 | 0.60831 | 38010 ft | 449 kts | 324° |
| 2026-04-21 12:37 | 51.52726 | 0.55070 | 38010 ft | 449 kts | 324° |
| 2026-04-21 12:37 | 51.57826 | 0.49297 | 38008 ft | 448 kts | 324° |
| 2026-04-21 12:38 | 51.62922 | 0.43512 | 38006 ft | 448 kts | 324° |
| 2026-04-21 12:38 | 51.68012 | 0.37719 | 38002 ft | 448 kts | 324° |
| 2026-04-21 12:39 | 51.73097 | 0.31914 | 38000 ft | 448 kts | 324° |
| 2026-04-21 12:39 | 51.78176 | 0.26099 | 37998 ft | 447 kts | 324° |
| 2026-04-21 12:40 | 51.83249 | 0.20276 | 37996 ft | 447 kts | 324° |
| 2026-04-21 12:40 | 51.88316 | 0.14443 | 37995 ft | 447 kts | 324° |
| 2026-04-21 12:41 | 51.93381 | 0.08596 | 37993 ft | 447 kts | 324° |
| 2026-04-21 12:41 | 51.98439 | 0.02740 | 37993 ft | 447 kts | 324° |
| 2026-04-21 12:42 | 52.02677 | -0.02050 | 37992 ft | 447 kts | 328° |
| 2026-04-21 12:42 | 52.09022 | -0.07678 | 37995 ft | 447 kts | 331° |
| 2026-04-21 12:43 | 52.13605 | -0.11708 | 37995 ft | 447 kts | 331° |
| 2026-04-21 12:43 | 52.19965 | -0.17309 | 37998 ft | 447 kts | 331° |
| 2026-04-21 12:44 | 52.24555 | -0.21356 | 37999 ft | 448 kts | 331° |
| 2026-04-21 12:44 | 52.30000 | -0.26168 | 38002 ft | 448 kts | 331° |
| 2026-04-21 12:45 | 52.35478 | -0.31023 | 38003 ft | 448 kts | 331° |
| 2026-04-21 12:45 | 52.40961 | -0.35892 | 38004 ft | 448 kts | 331° |
| 2026-04-21 12:46 | 52.46439 | -0.40771 | 38004 ft | 448 kts | 331° |
| 2026-04-21 12:46 | 52.51921 | -0.45668 | 38006 ft | 448 kts | 331° |
| 2026-04-21 12:47 | 52.57398 | -0.50575 | 38005 ft | 448 kts | 331° |
| 2026-04-21 12:47 | 52.62872 | -0.55494 | 38006 ft | 448 kts | 331° |
| 2026-04-21 12:48 | 52.68348 | -0.60428 | 38004 ft | 448 kts | 331° |
| 2026-04-21 12:48 | 52.73819 | -0.65372 | 38001 ft | 448 kts | 331° |
| 2026-04-21 12:49 | 52.79286 | -0.70327 | 37999 ft | 448 kts | 331° |
| 2026-04-21 12:49 | 52.84748 | -0.75292 | 37998 ft | 448 kts | 331° |
| 2026-04-21 12:50 | 52.90206 | -0.80267 | 38000 ft | 448 kts | 331° |
| 2026-04-21 12:50 | 52.95665 | -0.85257 | 38002 ft | 448 kts | 331° |
| 2026-04-21 12:51 | 53.01120 | -0.90259 | 38002 ft | 448 kts | 330° |
| 2026-04-21 12:51 | 53.06569 | -0.95266 | 38002 ft | 448 kts | 330° |
| 2026-04-21 12:52 | 53.12019 | -1.00287 | 38001 ft | 448 kts | 330° |
| 2026-04-21 12:52 | 53.17466 | -1.05321 | 38000 ft | 448 kts | 330° |
| 2026-04-21 12:53 | 53.22871 | -1.10331 | 37999 ft | 448 kts | 330° |
| 2026-04-21 12:53 | 53.28350 | -1.15424 | 37998 ft | 448 kts | 330° |
| 2026-04-21 12:54 | 53.33604 | -1.20322 | 37998 ft | 448 kts | 330° |
| 2026-04-21 12:54 | 53.39044 | -1.25408 | 37997 ft | 448 kts | 330° |
| 2026-04-21 12:55 | 53.44442 | -1.30472 | 37998 ft | 448 kts | 330° |
| 2026-04-21 12:55 | 53.49908 | -1.35626 | 37999 ft | 448 kts | 330° |
| 2026-04-21 12:56 | 53.55299 | -1.40725 | 38000 ft | 448 kts | 330° |
| 2026-04-21 12:56 | 53.60729 | -1.45873 | 38001 ft | 448 kts | 330° |
| 2026-04-21 12:57 | 53.66156 | -1.51035 | 38003 ft | 448 kts | 330° |
| 2026-04-21 12:57 | 53.71584 | -1.56212 | 38001 ft | 448 kts | 330° |
| 2026-04-21 12:58 | 53.76780 | -1.61998 | 37998 ft | 448 kts | 324° |
| 2026-04-21 12:58 | 53.81867 | -1.68074 | 37998 ft | 448 kts | 324° |
| 2026-04-21 12:59 | 53.86958 | -1.74157 | 37999 ft | 448 kts | 324° |
| 2026-04-21 12:59 | 53.92040 | -1.80268 | 37993 ft | 448 kts | 324° |
| 2026-04-21 13:00 | 53.97119 | -1.86399 | 37993 ft | 448 kts | 324° |
| 2026-04-21 13:00 | 54.02194 | -1.92546 | 37998 ft | 448 kts | 324° |
| 2026-04-21 13:01 | 54.07267 | -1.98708 | 37998 ft | 448 kts | 324° |
| 2026-04-21 13:01 | 54.12341 | -2.04891 | 37999 ft | 448 kts | 324° |
| 2026-04-21 13:02 | 54.17414 | -2.11091 | 37984 ft | 448 kts | 324° |
| 2026-04-21 13:02 | 54.25013 | -2.20416 | 37984 ft | 449 kts | 324° |
| 2026-04-21 13:03 | 54.29821 | -2.26338 | 37958 ft | 449 kts | 324° |
| 2026-04-21 13:03 | 54.32361 | -2.29473 | 37744 ft | 450 kts | 324° |
| 2026-04-21 13:03 | 54.34896 | -2.32607 | 37486 ft | 448 kts | 324° |
| 2026-04-21 13:04 | 54.37422 | -2.35734 | 37120 ft | 448 kts | 324° |
| 2026-04-21 13:04 | 54.39963 | -2.38886 | 36377 ft | 453 kts | 324° |
| 2026-04-21 13:04 | 54.42512 | -2.42052 | 35728 ft | 452 kts | 324° |
| 2026-04-21 13:04 | 54.45037 | -2.45193 | 35049 ft | 452 kts | 324° |
| 2026-04-21 13:05 | 54.47602 | -2.48390 | 34349 ft | 451 kts | 324° |
| 2026-04-21 13:05 | 54.50140 | -2.51557 | 33653 ft | 451 kts | 324° |
| 2026-04-21 13:05 | 54.52680 | -2.54732 | 32852 ft | 453 kts | 323° |
| 2026-04-21 13:05 | 54.55226 | -2.57919 | 32125 ft | 452 kts | 323° |
| 2026-04-21 13:06 | 54.57773 | -2.61113 | 31335 ft | 453 kts | 323° |
| 2026-04-21 13:06 | 54.60321 | -2.64312 | 30553 ft | 453 kts | 323° |
| 2026-04-21 13:06 | 54.62856 | -2.67502 | 30032 ft | 447 kts | 323° |
| 2026-04-21 13:06 | 54.65357 | -2.70652 | 29488 ft | 442 kts | 323° |
| 2026-04-21 13:07 | 54.67824 | -2.73765 | 28944 ft | 437 kts | 323° |
| 2026-04-21 13:07 | 54.70324 | -2.76705 | 28402 ft | 432 kts | 329° |
| 2026-04-21 13:07 | 54.72985 | -2.79040 | 28096 ft | 430 kts | 336° |
| 2026-04-21 13:07 | 54.75797 | -2.81032 | 28002 ft | 439 kts | 337° |
| 2026-04-21 13:08 | 54.78612 | -2.83058 | 27846 ft | 437 kts | 337° |
| 2026-04-21 13:08 | 54.81382 | -2.85064 | 27279 ft | 438 kts | 337° |
| 2026-04-21 13:08 | 54.84213 | -2.87114 | 26386 ft | 443 kts | 337° |
| 2026-04-21 13:08 | 54.87073 | -2.89183 | 25466 ft | 446 kts | 337° |
| 2026-04-21 13:09 | 54.89929 | -2.91246 | 24790 ft | 443 kts | 337° |
| 2026-04-21 13:09 | 54.92758 | -2.93291 | 24138 ft | 438 kts | 337° |
| 2026-04-21 13:09 | 54.95554 | -2.95314 | 23480 ft | 434 kts | 337° |
| 2026-04-21 13:09 | 54.98322 | -2.97321 | 22917 ft | 427 kts | 337° |
| 2026-04-21 13:10 | 55.01044 | -2.99296 | 22373 ft | 421 kts | 337° |
| 2026-04-21 13:10 | 55.03722 | -3.01243 | 21843 ft | 414 kts | 337° |
| 2026-04-21 13:10 | 55.06364 | -3.03166 | 21313 ft | 408 kts | 337° |
| 2026-04-21 13:10 | 55.08961 | -3.05059 | 20778 ft | 400 kts | 337° |
| 2026-04-21 13:11 | 55.11488 | -3.06904 | 20299 ft | 390 kts | 337° |
| 2026-04-21 13:11 | 55.13963 | -3.08714 | 20061 ft | 383 kts | 337° |
| 2026-04-21 13:11 | 55.16439 | -3.10526 | 19958 ft | 389 kts | 337° |
| 2026-04-21 13:11 | 55.18928 | -3.12351 | 19908 ft | 385 kts | 336° |
| 2026-04-21 13:12 | 55.21355 | -3.14150 | 19730 ft | 371 kts | 336° |
| 2026-04-21 13:12 | 55.23721 | -3.15912 | 18874 ft | 371 kts | 336° |
| 2026-04-21 13:12 | 55.26135 | -3.17702 | 17586 ft | 382 kts | 336° |
| 2026-04-21 13:12 | 55.28625 | -3.19302 | 16664 ft | 380 kts | 345° |
| 2026-04-21 13:13 | 55.31200 | -3.20002 | 16068 ft | 369 kts | 356° |
| 2026-04-21 13:13 | 55.33717 | -3.19851 | 15747 ft | 361 kts | 5° |
| 2026-04-21 13:13 | 55.36240 | -3.19434 | 15303 ft | 366 kts | 4° |
| 2026-04-21 13:13 | 55.38768 | -3.19048 | 14715 ft | 361 kts | 4° |
| 2026-04-21 13:14 | 55.41260 | -3.18671 | 14141 ft | 360 kts | 4° |
| 2026-04-21 13:14 | 55.43753 | -3.18290 | 13565 ft | 359 kts | 4° |
| 2026-04-21 13:14 | 55.46234 | -3.17904 | 12993 ft | 357 kts | 5° |
| 2026-04-21 13:14 | 55.48706 | -3.17516 | 12424 ft | 356 kts | 5° |
| 2026-04-21 13:15 | 55.51162 | -3.17130 | 11859 ft | 354 kts | 5° |
| 2026-04-21 13:15 | 55.53608 | -3.16744 | 11291 ft | 352 kts | 5° |
| 2026-04-21 13:15 | 55.56039 | -3.16358 | 10713 ft | 350 kts | 5° |
| 2026-04-21 13:15 | 55.58465 | -3.15974 | 10074 ft | 351 kts | 5° |
| 2026-04-21 13:16 | 55.60871 | -3.15592 | 9797 ft | 340 kts | 5° |
| 2026-04-21 13:16 | 55.63178 | -3.15226 | 9653 ft | 326 kts | 5° |
| 2026-04-21 13:16 | 55.65382 | -3.14875 | 9488 ft | 308 kts | 5° |
| 2026-04-21 13:16 | 55.67458 | -3.14545 | 9213 ft | 294 kts | 5° |
| 2026-04-21 13:17 | 55.69478 | -3.14450 | 8639 ft | 289 kts | 350° |
| 2026-04-21 13:17 | 55.71329 | -3.15715 | 8011 ft | 286 kts | 324° |
| 2026-04-21 13:17 | 55.72660 | -3.18271 | 7418 ft | 284 kts | 297° |
| 2026-04-21 13:17 | 55.73308 | -3.21499 | 7042 ft | 281 kts | 284° |
| 2026-04-21 13:18 | 55.73729 | -3.24875 | 6650 ft | 279 kts | 281° |
| 2026-04-21 13:18 | 55.74131 | -3.28234 | 6255 ft | 278 kts | 282° |
| 2026-04-21 13:18 | 55.74571 | -3.31563 | 5884 ft | 276 kts | 283° |
| 2026-04-21 13:18 | 55.75008 | -3.34581 | 5570 ft | 273 kts | 284° |
| 2026-04-21 13:19 | 55.75479 | -3.37677 | 5213 ft | 271 kts | 285° |
| 2026-04-21 13:19 | 55.75983 | -3.40911 | 4778 ft | 272 kts | 285° |
| 2026-04-21 13:19 | 55.76489 | -3.44131 | 4421 ft | 269 kts | 285° |
| 2026-04-21 13:19 | 55.77014 | -3.47321 | 4020 ft | 268 kts | 292° |
| 2026-04-21 13:20 | 55.77635 | -3.49174 | 3926 ft | 260 kts | 311° |
| 2026-04-21 13:20 | 55.79595 | -3.51236 | 3732 ft | 238 kts | 351° |
| 2026-04-21 13:20 | 55.81177 | -3.51163 | 3577 ft | 221 kts | 9° |
| 2026-04-21 13:20 | 55.82646 | -3.50640 | 3322 ft | 212 kts | 12° |
| 2026-04-21 13:21 | 55.84072 | -3.50044 | 2935 ft | 210 kts | 13° |
| 2026-04-21 13:21 | 55.85486 | -3.49435 | 2564 ft | 207 kts | 11° |
| 2026-04-21 13:21 | 55.86899 | -3.49561 | 2453 ft | 210 kts | 337° |
| 2026-04-21 13:21 | 55.88023 | -3.51124 | 2436 ft | 208 kts | 302° |
| 2026-04-21 13:22 | 55.88424 | -3.53543 | 2392 ft | 207 kts | 266° |
| 2026-04-21 13:22 | 55.87984 | -3.55944 | 2433 ft | 208 kts | 244° |
| 2026-04-21 13:22 | 55.87693 | -3.58414 | 2440 ft | 206 kts | 277° |
| 2026-04-21 13:22 | 55.87833 | -3.60953 | 2423 ft | 205 kts | 260° |
| 2026-04-21 13:23 | 55.87269 | -3.63274 | 2432 ft | 208 kts | 237° |
| 2026-04-21 13:23 | 55.86781 | -3.65645 | 2447 ft | 205 kts | 267° |
| 2026-04-21 13:23 | 55.86540 | -3.68147 | 2435 ft | 206 kts | 243° |
| 2026-04-21 13:23 | 55.85577 | -3.69993 | 2433 ft | 208 kts | 207° |
| 2026-04-21 13:24 | 55.84178 | -3.70489 | 2436 ft | 209 kts | 172° |
| 2026-04-21 13:24 | 55.82919 | -3.69313 | 2433 ft | 211 kts | 128° |
| 2026-04-21 13:24 | 55.82469 | -3.66902 | 2432 ft | 211 kts | 83° |
| 2026-04-21 13:24 | 55.83086 | -3.64605 | 2438 ft | 211 kts | 43° |
| 2026-04-21 13:25 | 55.84209 | -3.62934 | 2431 ft | 210 kts | 38° |
| 2026-04-21 13:25 | 55.85350 | -3.61315 | 2431 ft | 210 kts | 38° |
| 2026-04-21 13:25 | 55.86472 | -3.59661 | 2422 ft | 206 kts | 40° |
| 2026-04-21 13:25 | 55.87514 | -3.58040 | 2424 ft | 195 kts | 42° |
| 2026-04-21 13:26 | 55.88455 | -3.56237 | 2405 ft | 201 kts | 52° |
| 2026-04-21 13:26 | 55.89248 | -3.54217 | 2218 ft | 195 kts | 57° |
| 2026-04-21 13:26 | 55.89941 | -3.52180 | 1904 ft | 188 kts | 59° |
| 2026-04-21 13:26 | 55.90574 | -3.50311 | 1683 ft | 164 kts | 58° |
| 2026-04-21 13:27 | 55.91133 | -3.48661 | 1444 ft | 148 kts | 58° |
| 2026-04-21 13:27 | 55.91643 | -3.47158 | 1259 ft | 139 kts | 58° |
| 2026-04-21 13:27 | 55.92149 | -3.45664 | 1075 ft | 140 kts | 58° |
| 2026-04-21 13:27 | 55.92649 | -3.44188 | 871 ft | 138 kts | 58° |
| 2026-04-21 13:28 | 55.93132 | -3.42754 | 680 ft | 135 kts | 58° |
| 2026-04-21 13:28 | 55.93612 | -3.41327 | 533 ft | 130 kts | 58° |
| 2026-04-21 13:28 | 55.94069 | -3.39962 | 384 ft | 127 kts | 59° |
| 2026-04-21 13:28 | 55.94531 | -3.38589 | 159 ft | 128 kts | 58° |
| 2026-04-21 13:29 | 55.94972 | -3.37327 | 107 ft | 106 kts | 57° |
| 2026-04-21 13:29 | 55.95194 | -3.36676 | 108 ft | 50 kts | 59° |
| 2026-04-21 13:29 | 55.95318 | -3.36302 | 99 ft | 24 kts | 58° |
| 2026-04-21 13:29 | 55.95382 | -3.36117 | 100 ft | 27 kts | 58° |
| 2026-04-21 13:30 | 55.95467 | -3.35869 | 100 ft | 17 kts | 58° |
| 2026-04-21 13:30 | 55.95509 | -3.35746 | 103 ft | 17 kts | 58° |
| 2026-04-21 13:30 | 55.95532 | -3.35484 | 100 ft | 19 kts | 138° |
| 2026-04-21 13:30 | 55.95504 | -3.35446 | 101 ft | 0 kts | 144° |
| 2026-04-21 13:31 | 55.95487 | -3.35425 | 102 ft | 1 kts | 145° |
| 2026-04-21 13:31 | 55.95469 | -3.35403 | 103 ft | 4 kts | 146° |
| 2026-04-21 13:31 | 55.95442 | -3.35387 | 104 ft | 2 kts | 175° |
| 2026-04-21 13:31 | 55.95434 | -3.35398 | 104 ft | 2 kts | 221° |
| 2026-04-21 13:32 | 55.95422 | -3.35429 | 104 ft | 4 kts | 235° |
| 2026-04-21 13:32 | 55.95402 | -3.35484 | 105 ft | 6 kts | 242° |
| 2026-04-21 13:32 | 55.95398 | -3.35496 | 105 ft | 0 kts | 240° |